KLAS

Mc Carran International Airport

Las Vegas, Nevada, USA
KLAS 181120Z 1812/1918 20007KT P6SM SKC FM181500 VRB05KT P6SM SKC FM181900 08006KT P6SM SKC FM182200 12007KT P6SM SKC FM190300 20008KT P6SM SKC
Issued Valid From Valid To
Jun-18 @ 11:20 UTC
(2 hours ago)
Jun-18 @ 12:00 UTC
(an hour ago)
Jun-19 @ 18:00 UTC
(-1 days ago)
Jun-18 @ 12:00 to Jun-18 @ 15:00
KLAS 181120Z 1812/1918 20007KT P6SM SKC
Wind Visibility Clouds
200° at 7 knots Greater than 6 miles
  • Clear skies
From Jun-18 @ 15:00 to Jun-18 @ 19:00
FM181500 VRB05KT P6SM SKC
Wind Visibility Clouds
Variable at 5 knots Greater than 6 miles
  • Clear skies
From Jun-18 @ 19:00 to Jun-18 @ 22:00
FM181900 08006KT P6SM SKC
Wind Visibility Clouds
80° at 6 knots Greater than 6 miles
  • Clear skies
From Jun-18 @ 22:00 to Jun-19 @ 03:00
FM182200 12007KT P6SM SKC
Wind Visibility Clouds
120° at 7 knots Greater than 6 miles
  • Clear skies
From Jun-19 @ 03:00 to Jun-19 @ 18:00
FM190300 20008KT P6SM SKC
Wind Visibility Clouds
200° at 8 knots Greater than 6 miles
  • Clear skies
KLAS 181120Z 1812/1918 20007KT P6SM SKC FM181500 VRB05KT P6SM SKC FM181900 08006KT P6SM SKC FM182200 12007KT P6SM SKC FM190300 20008KT P6SM SKC
Issued Jun-18 @ 11:20 UTC
(2 hours ago)
Valid From Jun-18 @ 12:00 UTC
(an hour ago)
Valid To Jun-19 @ 18:00 UTC
(-1 days ago)
Jun-18 @ 12:00 - Jun-18 @ 15:00
Wind Visibility
200° at 7 knots Greater than 6 miles
Clouds
  • Clear skies
From Jun-18 @ 15:00 - Jun-18 @ 19:00
Wind Visibility
Variable at 5 knots Greater than 6 miles
Clouds
  • Clear skies
From Jun-18 @ 19:00 - Jun-18 @ 22:00
Wind Visibility
80° at 6 knots Greater than 6 miles
Clouds
  • Clear skies
From Jun-18 @ 22:00 - Jun-19 @ 03:00
Wind Visibility
120° at 7 knots Greater than 6 miles
Clouds
  • Clear skies
From Jun-19 @ 03:00 - Jun-19 @ 18:00
Wind Visibility
200° at 8 knots Greater than 6 miles
Clouds
  • Clear skies